Time;durP1;ratioP1;P1;durP2;ratioP2;P2;SDS_P1;SDS_P2;PMS_P1;PMS_P2;Temp;Humidity;BMP_temperature;BMP_pressure;BME280_temperature;BME280_humidity;BME280_pressure;Samples;Min_cycle;Max_cycle;Signal;HPM_P1;HPM_P2
2024/01/05 00:02:13;;;;;;;18.98;4.88;;;7.90;99.90;;;;;;5034530;28;20175;-52
2024/01/05 00:04:39;;;;;;;19.42;4.63;;;7.80;99.90;;;;;;5034275;28;20170;-53
2024/01/05 00:07:09;;;;;;;16.33;4.45;;;7.90;99.90;;;;;;5034215;28;20504;-53
2024/01/05 00:09:34;;;;;;;13.48;4.70;;;7.90;99.90;;;;;;5033919;28;20176;-52
2024/01/05 00:12:00;;;;;;;11.30;3.85;;;7.90;99.90;;;;;;5034621;28;20178;-53
2024/01/05 00:14:26;;;;;;;15.13;4.82;;;7.90;99.90;;;;;;5034265;28;20172;-53
2024/01/05 00:16:52;;;;;;;20.42;5.25;;;7.80;99.90;;;;;;5035249;28;20179;-53
2024/01/05 00:19:18;;;;;;;13.63;4.60;;;7.80;99.90;;;;;;5034129;28;20245;-52
2024/01/05 00:21:43;;;;;;;15.13;4.18;;;7.80;99.90;;;;;;5033898;28;20635;-52
2024/01/05 00:24:09;;;;;;;13.38;4.30;;;7.70;99.90;;;;;;5033722;28;20179;-53
2024/01/05 00:26:40;;;;;;;8.18;3.90;;;7.70;99.90;;;;;;5033827;28;20172;-52
2024/01/05 00:29:05;;;;;;;17.42;5.18;;;7.70;99.90;;;;;;5033981;28;20621;-52
2024/01/05 00:31:31;;;;;;;13.90;3.65;;;7.70;99.90;;;;;;5033752;28;20211;-52
2024/01/05 00:33:56;;;;;;;14.70;4.15;;;7.70;99.90;;;;;;5034123;28;20174;-52
2024/01/05 00:36:22;;;;;;;11.68;3.38;;;7.70;99.90;;;;;;5033730;28;20227;-52
2024/01/05 00:38:48;;;;;;;15.70;3.35;;;7.60;99.90;;;;;;5033385;28;20692;-52
2024/01/05 00:41:14;;;;;;;11.07;3.33;;;7.60;99.90;;;;;;5033102;28;20171;-52
2024/01/05 00:43:40;;;;;;;12.60;3.13;;;7.60;99.90;;;;;;5033584;28;20170;-53
2024/01/05 00:46:06;;;;;;;15.07;3.67;;;7.60;99.90;;;;;;5044749;28;20533;-52
2024/01/05 00:48:31;;;;;;;16.83;3.92;;;7.50;99.90;;;;;;5053072;28;20166;-52
2024/01/05 00:50:57;;;;;;;15.40;3.40;;;7.50;99.90;;;;;;5053656;28;20280;-52
2024/01/05 00:53:22;;;;;;;11.80;2.97;;;7.50;99.90;;;;;;5053254;28;20169;-52
2024/01/05 00:55:48;;;;;;;19.23;2.88;;;7.50;99.90;;;;;;5053029;28;20300;-52
2024/01/05 00:58:13;;;;;;;12.05;3.03;;;7.50;99.90;;;;;;5053055;28;20253;-53
2024/01/05 01:00:39;;;;;;;8.10;2.63;;;7.50;99.90;;;;;;5053001;28;20197;-53
2024/01/05 01:03:04;;;;;;;9.43;3.08;;;7.50;99.90;;;;;;5052867;28;20216;-53
2024/01/05 01:05:30;;;;;;;8.93;2.45;;;7.60;99.90;;;;;;5053567;28;20193;-53
2024/01/05 01:07:55;;;;;;;11.00;2.53;;;7.60;99.90;;;;;;5052802;28;20614;-53
2024/01/05 01:10:21;;;;;;;12.15;2.60;;;7.70;99.90;;;;;;5052661;28;20700;-53
2024/01/05 01:12:46;;;;;;;11.80;2.42;;;7.70;99.90;;;;;;5033884;28;20175;-53
2024/01/05 01:15:12;;;;;;;12.60;3.05;;;7.70;99.90;;;;;;5037405;28;20244;-52
2024/01/05 01:17:38;;;;;;;7.47;2.13;;;7.70;99.90;;;;;;5052636;28;20685;-53
2024/01/05 01:20:04;;;;;;;8.63;2.70;;;7.70;99.90;;;;;;5052464;28;20241;-52
2024/01/05 01:22:29;;;;;;;6.75;1.70;;;7.70;99.90;;;;;;5053175;28;20673;-52
2024/01/05 01:24:55;;;;;;;9.60;2.55;;;7.70;99.90;;;;;;5052666;28;20167;-52
2024/01/05 01:27:20;;;;;;;12.82;2.30;;;7.70;99.90;;;;;;5052662;28;20174;-52
2024/01/05 01:29:48;;;;;;;6.63;1.92;;;7.70;99.90;;;;;;5052420;28;20167;-52
2024/01/05 01:32:13;;;;;;;10.73;2.08;;;7.70;99.90;;;;;;5052520;28;20175;-53
2024/01/05 01:34:39;;;;;;;12.25;2.33;;;7.70;99.90;;;;;;5052409;28;20169;-52
2024/01/05 01:37:05;;;;;;;10.57;2.65;;;7.70;99.90;;;;;;5052346;28;20170;-53
2024/01/05 01:39:31;;;;;;;8.45;2.30;;;7.70;99.90;;;;;;5052605;28;20174;-53
2024/01/05 01:41:57;;;;;;;11.38;2.58;;;7.70;99.90;;;;;;5039959;28;20211;-52
2024/01/05 01:44:23;;;;;;;12.57;2.38;;;7.70;99.90;;;;;;5032199;28;20187;-53
2024/01/05 01:46:50;;;;;;;8.32;2.47;;;7.70;99.90;;;;;;5032202;28;20214;-53
2024/01/05 01:49:16;;;;;;;7.47;2.17;;;7.70;99.90;;;;;;5032223;28;20623;-53
2024/01/05 01:51:43;;;;;;;14.07;3.65;;;7.70;99.90;;;;;;5032112;28;20218;-53
2024/01/05 01:54:09;;;;;;;14.07;2.38;;;7.70;99.90;;;;;;5031677;28;20164;-53
2024/01/05 01:56:36;;;;;;;14.68;3.67;;;7.70;99.90;;;;;;5031778;28;20227;-53
2024/01/05 01:59:02;;;;;;;11.02;2.70;;;7.70;99.90;;;;;;5031679;28;20175;-53
2024/01/05 02:01:28;;;;;;;8.05;2.63;;;7.70;99.90;;;;;;5031522;28;20654;-53
2024/01/05 02:03:54;;;;;;;10.88;2.35;;;7.60;99.90;;;;;;5031873;28;20168;-52
2024/01/05 02:06:20;;;;;;;11.65;2.67;;;7.60;99.90;;;;;;5031977;28;20258;-53
2024/01/05 02:08:47;;;;;;;13.50;3.10;;;7.50;99.90;;;;;;5031871;28;20722;-53
2024/01/05 02:11:13;;;;;;;7.70;2.22;;;7.40;99.90;;;;;;5037915;28;20220;-52
2024/01/05 02:13:39;;;;;;;14.38;3.33;;;7.40;99.90;;;;;;5051381;28;20158;-52
2024/01/05 02:16:05;;;;;;;8.73;3.33;;;7.30;99.90;;;;;;5051231;28;20178;-53
2024/01/05 02:18:30;;;;;;;15.30;2.83;;;7.20;99.90;;;;;;5051694;28;20194;-52
2024/01/05 02:20:59;;;;;;;9.05;3.03;;;7.90;99.90;;;;;;5051947;28;20190;-52
2024/01/05 02:23:26;;;;;;;11.43;3.38;;;7.20;99.90;;;;;;5051402;28;20250;-52
2024/01/05 02:25:53;;;;;;;8.57;3.00;;;7.20;99.90;;;;;;5051396;28;20228;-52
2024/01/05 02:28:19;;;;;;;9.13;3.22;;;7.20;99.90;;;;;;5051377;28;20660;-52
2024/01/05 02:30:45;;;;;;;13.57;3.45;;;7.10;99.90;;;;;;5051604;28;20213;-53
2024/01/05 02:33:11;;;;;;;16.77;4.10;;;7.10;99.90;;;;;;5051325;28;20520;-53
2024/01/05 02:35:36;;;;;;;8.02;2.58;;;7.10;99.90;;;;;;5051206;28;20167;-53
2024/01/05 02:38:02;;;;;;;15.75;3.50;;;7.10;99.90;;;;;;5051195;28;20177;-52
2024/01/05 02:40:28;;;;;;;12.18;3.53;;;7.10;99.90;;;;;;5051226;28;20249;-53
2024/01/05 02:42:53;;;;;;;13.10;2.88;;;7.10;99.90;;;;;;5031107;28;20280;-53
2024/01/05 02:45:20;;;;;;;9.27;3.00;;;7.10;99.90;;;;;;5031344;28;20319;-53
2024/01/05 02:47:49;;;;;;;14.48;3.72;;;7.10;99.90;;;;;;5031169;28;20202;-53
2024/01/05 02:50:15;;;;;;;12.15;3.00;;;7.10;99.90;;;;;;5031208;28;20215;-53
2024/01/05 02:52:41;;;;;;;12.00;2.97;;;7.10;99.90;;;;;;5031133;28;20167;-53
2024/01/05 02:55:07;;;;;;;11.98;2.75;;;7.00;99.90;;;;;;5031008;28;20297;-53
2024/01/05 02:57:32;;;;;;;10.65;2.70;;;7.00;99.90;;;;;;5029702;28;20168;-53
2024/01/05 02:59:58;;;;;;;10.43;2.88;;;7.00;99.90;;;;;;5031564;28;20172;-53
2024/01/05 03:02:23;;;;;;;10.77;3.03;;;7.00;99.90;;;;;;5031145;28;20171;-53
2024/01/05 03:04:50;;;;;;;20.77;3.22;;;6.90;99.90;;;;;;5031093;28;20186;-53
2024/01/05 03:07:16;;;;;;;8.35;2.72;;;6.90;99.90;;;;;;5031093;28;20592;-53
2024/01/05 03:09:41;;;;;;;11.90;2.33;;;6.80;99.90;;;;;;5030937;28;20238;-53
2024/01/05 03:12:07;;;;;;;7.82;2.40;;;6.80;99.90;;;;;;5044091;28;20179;-52
2024/01/05 03:14:33;;;;;;;10.43;2.58;;;6.90;99.90;;;;;;5051166;28;20178;-52
2024/01/05 03:16:58;;;;;;;13.10;2.50;;;6.80;99.90;;;;;;5050147;28;20167;-53
2024/01/05 03:19:24;;;;;;;7.43;2.47;;;6.90;99.90;;;;;;5050788;28;20625;-53
2024/01/05 03:21:49;;;;;;;6.95;2.30;;;6.90;99.90;;;;;;5050955;28;20556;-53
2024/01/05 03:24:15;;;;;;;7.22;2.65;;;6.90;99.90;;;;;;5050942;28;20177;-53
2024/01/05 03:26:44;;;;;;;13.27;2.33;;;6.90;99.90;;;;;;5050855;28;20167;-54
2024/01/05 03:29:09;;;;;;;8.50;3.03;;;7.00;99.90;;;;;;5050980;28;20510;-54
2024/01/05 03:31:35;;;;;;;5.20;2.20;;;7.00;99.90;;;;;;5052870;28;20221;-53
2024/01/05 03:34:00;;;;;;;10.45;2.78;;;6.90;99.90;;;;;;5054787;28;20645;-53
2024/01/05 03:36:26;;;;;;;12.95;2.50;;;7.00;99.90;;;;;;5055042;28;20170;-51
2024/01/05 03:38:51;;;;;;;7.40;2.10;;;6.90;99.90;;;;;;5054648;28;20170;-53
2024/01/05 03:41:17;;;;;;;11.48;3.05;;;6.90;99.90;;;;;;5047958;28;20174;-53
2024/01/05 03:43:43;;;;;;;4.80;1.95;;;6.90;99.90;;;;;;5034783;28;20257;-52
2024/01/05 03:46:12;;;;;;;8.20;2.30;;;7.00;99.90;;;;;;5034557;28;20168;-52
2024/01/05 03:48:38;;;;;;;7.45;2.08;;;7.00;99.90;;;;;;5034796;28;20584;-52
2024/01/05 03:51:05;;;;;;;8.27;2.30;;;7.00;99.90;;;;;;5033101;28;20297;-53
2024/01/05 03:53:30;;;;;;;6.32;2.15;;;7.00;99.90;;;;;;5034895;28;20573;-53
2024/01/05 03:56:00;;;;;;;5.32;2.03;;;7.00;99.90;;;;;;5034755;28;20310;-53
2024/01/05 03:58:26;;;;;;;6.13;1.92;;;7.00;99.90;;;;;;5034769;28;20178;-52
2024/01/05 04:00:51;;;;;;;7.38;1.90;;;7.00;99.90;;;;;;5034524;28;20175;-53
2024/01/05 04:03:17;;;;;;;11.40;2.40;;;7.00;99.90;;;;;;5033714;28;20646;-53
2024/01/05 04:05:43;;;;;;;6.30;2.00;;;7.00;99.90;;;;;;5033445;28;20171;-52
2024/01/05 04:08:08;;;;;;;12.65;2.35;;;7.10;99.90;;;;;;5034153;28;20171;-53
2024/01/05 04:10:35;;;;;;;10.63;2.83;;;7.20;99.90;;;;;;5033940;28;20249;-52
2024/01/05 04:13:01;;;;;;;7.30;2.72;;;7.30;99.90;;;;;;5053096;28;20173;-52
2024/01/05 04:15:27;;;;;;;3.85;1.95;;;7.30;99.90;;;;;;5053594;28;20158;-52
2024/01/05 04:17:53;;;;;;;6.78;2.35;;;7.40;99.90;;;;;;5053363;28;20201;-53
2024/01/05 04:20:19;;;;;;;12.20;2.78;;;7.40;99.90;;;;;;5053450;28;20634;-52
2024/01/05 04:22:44;;;;;;;6.18;2.30;;;7.50;99.90;;;;;;5053398;28;20171;-52
2024/01/05 04:25:10;;;;;;;4.35;1.65;;;7.50;99.90;;;;;;5053377;28;20205;-52
2024/01/05 04:27:35;;;;;;;5.97;2.08;;;7.60;99.90;;;;;;5053760;28;20251;-52
2024/01/05 04:30:01;;;;;;;5.57;1.92;;;7.60;99.90;;;;;;5053612;28;20206;-53
2024/01/05 04:32:26;;;;;;;10.57;2.45;;;7.70;99.90;;;;;;5054034;28;20212;-52
2024/01/05 04:34:52;;;;;;;6.95;2.30;;;7.70;99.90;;;;;;5053523;28;20503;-53
2024/01/05 04:37:17;;;;;;;10.57;2.63;;;7.70;99.90;;;;;;5053717;28;20653;-51
2024/01/05 04:39:43;;;;;;;9.25;2.47;;;7.70;99.90;;;;;;5053009;28;20171;-53
2024/01/05 04:42:11;;;;;;;10.15;2.60;;;7.70;99.90;;;;;;5052453;28;20248;-53
2024/01/05 04:44:37;;;;;;;11.02;3.28;;;7.70;99.90;;;;;;5053465;28;20237;-52
2024/01/05 04:47:02;;;;;;;8.95;3.88;;;7.80;99.90;;;;;;5053418;28;20167;-52
2024/01/05 04:49:28;;;;;;;8.27;2.90;;;7.70;99.90;;;;;;5053761;28;20170;-52
2024/01/05 04:51:53;;;;;;;5.82;3.00;;;7.70;99.90;;;;;;5053075;28;20202;-53
2024/01/05 04:54:19;;;;;;;11.57;3.28;;;7.70;99.90;;;;;;5052668;28;20174;-52
2024/01/05 04:56:45;;;;;;;5.00;2.22;;;7.70;99.90;;;;;;5052645;28;20214;-52
2024/01/05 04:59:10;;;;;;;5.78;2.40;;;7.70;99.90;;;;;;5052683;28;20241;-52
2024/01/05 05:01:36;;;;;;;6.80;2.00;;;7.70;99.90;;;;;;5053061;28;20657;-52
2024/01/05 05:04:01;;;;;;;7.63;2.05;;;7.80;99.90;;;;;;5051157;28;20258;-52
2024/01/05 05:06:27;;;;;;;4.63;2.17;;;7.80;99.90;;;;;;5053400;28;20174;-51
2024/01/05 05:08:53;;;;;;;9.65;2.65;;;7.80;99.90;;;;;;5052594;28;20553;-52
2024/01/05 05:11:19;;;;;;;6.53;1.98;;;7.80;99.90;;;;;;5040586;28;20249;-52
2024/01/05 05:13:45;;;;;;;6.20;2.05;;;7.90;99.90;;;;;;5032927;28;20195;-52
2024/01/05 05:16:10;;;;;;;6.00;1.70;;;7.80;99.90;;;;;;5032908;28;20278;-52
2024/01/05 05:18:36;;;;;;;5.45;1.85;;;7.80;99.90;;;;;;5032790;28;20167;-52
2024/01/05 05:21:02;;;;;;;5.68;1.70;;;7.80;99.90;;;;;;5032720;28;20615;-52
2024/01/05 05:23:28;;;;;;;6.03;1.85;;;7.80;99.90;;;;;;5033137;28;20168;-52
2024/01/05 05:25:54;;;;;;;11.50;2.90;;;7.80;99.90;;;;;;5032719;28;20246;-52
2024/01/05 05:28:20;;;;;;;5.70;1.88;;;7.80;99.90;;;;;;5032851;28;20170;-52
2024/01/05 05:30:45;;;;;;;4.47;1.65;;;7.90;99.90;;;;;;5032376;28;20206;-53
2024/01/05 05:33:11;;;;;;;4.78;1.70;;;7.90;99.90;;;;;;5032583;28;20171;-52
2024/01/05 05:35:36;;;;;;;8.80;2.42;;;7.90;99.90;;;;;;5032496;28;20246;-53
2024/01/05 05:38:03;;;;;;;5.50;2.00;;;7.90;99.90;;;;;;5032300;28;20522;-52
2024/01/05 05:40:29;;;;;;;7.57;2.22;;;7.90;99.90;;;;;;5041837;28;20189;-52
2024/01/05 05:42:55;;;;;;;4.00;2.42;;;7.90;99.90;;;;;;5052601;28;20178;-53
2024/01/05 05:45:21;;;;;;;5.18;2.00;;;8.00;99.90;;;;;;5052096;28;20661;-52
2024/01/05 05:47:46;;;;;;;6.40;1.83;;;7.90;99.90;;;;;;5052248;28;20522;-52
2024/01/05 05:50:13;;;;;;;5.63;2.00;;;7.90;99.90;;;;;;5052024;28;20190;-53
2024/01/05 05:52:39;;;;;;;6.60;1.75;;;7.90;99.90;;;;;;5052185;28;20518;-53
2024/01/05 05:55:06;;;;;;;5.53;1.95;;;7.90;99.90;;;;;;5051285;28;20642;-53
2024/01/05 05:57:32;;;;;;;5.88;1.73;;;7.80;99.90;;;;;;5052093;28;20202;-53
2024/01/05 05:59:58;;;;;;;7.47;1.73;;;7.80;99.90;;;;;;5051453;28;20689;-53
2024/01/05 06:02:24;;;;;;;4.95;1.73;;;7.80;99.90;;;;;;5052061;28;20202;-54
2024/01/05 06:04:50;;;;;;;6.85;1.70;;;7.80;99.90;;;;;;5051931;28;20202;-54
2024/01/05 06:07:16;;;;;;;4.90;1.60;;;7.80;99.90;;;;;;5051914;28;20216;-54
2024/01/05 06:09:42;;;;;;;6.25;1.88;;;7.80;99.90;;;;;;5048830;28;20265;-54
2024/01/05 06:12:09;;;;;;;4.80;2.08;;;7.80;99.90;;;;;;5031774;28;20251;-53
2024/01/05 06:14:36;;;;;;;6.28;1.63;;;7.80;99.90;;;;;;5031999;28;20588;-53
2024/01/05 06:17:02;;;;;;;7.80;1.75;;;7.80;99.90;;;;;;5031786;28;20163;-53
2024/01/05 06:19:27;;;;;;;4.68;1.90;;;7.70;99.90;;;;;;5032174;28;20163;-53
2024/01/05 06:21:53;;;;;;;4.88;2.20;;;7.70;99.90;;;;;;5031685;28;20164;-53
2024/01/05 06:24:18;;;;;;;4.55;1.92;;;7.80;99.90;;;;;;5031635;28;20168;-54
2024/01/05 06:26:44;;;;;;;2.72;1.75;;;7.80;99.90;;;;;;5031523;28;20163;-53
2024/01/05 06:29:09;;;;;;;4.88;2.13;;;7.90;99.90;;;;;;5031433;28;20254;-53
2024/01/05 06:31:35;;;;;;;5.45;1.42;;;7.90;99.90;;;;;;5031305;28;20218;-53
2024/01/05 06:34:01;;;;;;;5.53;1.77;;;8.00;99.90;;;;;;5031411;28;20631;-53
2024/01/05 06:36:26;;;;;;;2.63;1.20;;;8.10;99.90;;;;;;5032072;28;20245;-53
2024/01/05 06:38:52;;;;;;;4.55;1.40;;;8.10;99.90;;;;;;5030212;28;20167;-53
2024/01/05 06:41:17;;;;;;;5.22;1.98;;;8.10;99.90;;;;;;5051243;28;20174;-53
2024/01/05 06:43:43;;;;;;;2.75;1.13;;;8.10;99.90;;;;;;5051571;28;20166;-53
2024/01/05 06:46:08;;;;;;;6.40;1.92;;;8.10;99.90;;;;;;5051250;28;20631;-53
2024/01/05 06:48:34;;;;;;;3.08;1.27;;;8.10;99.90;;;;;;5051222;28;20170;-53
2024/01/05 06:50:59;;;;;;;4.93;1.38;;;8.10;99.90;;;;;;5051321;28;20203;-53
2024/01/05 06:53:25;;;;;;;4.32;1.40;;;8.20;99.90;;;;;;5051633;28;20166;-53
2024/01/05 06:55:51;;;;;;;7.63;1.35;;;8.20;99.90;;;;;;5049711;28;20218;-53
2024/01/05 06:58:16;;;;;;;2.63;1.30;;;8.20;99.90;;;;;;5051082;28;20614;-53
2024/01/05 07:00:42;;;;;;;5.38;1.40;;;8.20;99.90;;;;;;5051333;28;20236;-53
2024/01/05 07:03:08;;;;;;;5.82;1.50;;;8.20;99.90;;;;;;5051370;28;20522;-53
2024/01/05 07:05:33;;;;;;;7.50;1.52;;;8.20;99.90;;;;;;5053340;28;20536;-53
2024/01/05 07:07:59;;;;;;;4.85;1.98;;;8.30;99.90;;;;;;5054432;28;20174;-53
2024/01/05 07:10:25;;;;;;;3.78;1.60;;;8.20;99.90;;;;;;5042504;28;20207;-53
2024/01/05 07:12:50;;;;;;;7.60;3.28;;;8.30;99.90;;;;;;5035114;28;20174;-53
2024/01/05 07:15:16;;;;;;;2.33;1.20;;;8.20;99.90;;;;;;5035205;28;20645;-52
2024/01/05 07:17:43;;;;;;;4.95;1.88;;;8.20;99.90;;;;;;5035145;28;20171;-53
2024/01/05 07:20:11;;;;;;;6.43;1.95;;;8.20;99.90;;;;;;5035352;28;20585;-52
2024/01/05 07:22:37;;;;;;;4.18;1.50;;;8.20;99.90;;;;;;5035307;28;20182;-53
2024/01/05 07:25:03;;;;;;;6.78;1.85;;;8.10;99.90;;;;;;5035223;28;20163;-53
2024/01/05 07:27:29;;;;;;;5.05;1.48;;;8.10;99.90;;;;;;5035365;28;20258;-52
2024/01/05 07:29:55;;;;;;;3.42;1.35;;;8.10;99.90;;;;;;5034832;28;20179;-53
2024/01/05 07:32:21;;;;;;;4.18;1.52;;;8.10;99.90;;;;;;5035017;28;20233;-54
2024/01/05 07:34:46;;;;;;;1.73;1.23;;;8.20;99.90;;;;;;5034793;28;20631;-53
2024/01/05 07:37:12;;;;;;;3.47;1.40;;;8.20;99.90;;;;;;5034830;28;20171;-52
2024/01/05 07:39:38;;;;;;;3.22;1.42;;;8.20;99.90;;;;;;5041004;28;20171;-53
2024/01/05 07:42:04;;;;;;;4.70;1.20;;;8.20;99.90;;;;;;5054646;28;20174;-53
2024/01/05 07:44:30;;;;;;;3.83;1.40;;;8.20;99.90;;;;;;5054828;28;20236;-52
2024/01/05 07:46:56;;;;;;;6.30;1.30;;;8.30;99.90;;;;;;5054941;28;20170;-54
2024/01/05 07:49:21;;;;;;;2.75;1.30;;;8.30;99.90;;;;;;5054545;28;20175;-53
2024/01/05 07:51:47;;;;;;;1.63;1.02;;;8.30;99.90;;;;;;5054313;28;20255;-53
2024/01/05 07:54:12;;;;;;;5.60;1.70;;;8.30;99.90;;;;;;5054396;28;20178;-54
2024/01/05 07:56:38;;;;;;;4.18;1.77;;;8.30;99.90;;;;;;5052981;28;20716;-53
2024/01/05 07:59:04;;;;;;;5.60;1.60;;;8.40;99.90;;;;;;5054295;28;20634;-53
2024/01/05 08:01:30;;;;;;;5.15;2.10;;;8.40;99.90;;;;;;5054160;28;20167;-53
2024/01/05 08:03:55;;;;;;;6.00;1.27;;;8.40;99.90;;;;;;5054773;28;20174;-54
2024/01/05 08:06:21;;;;;;;4.88;1.80;;;8.30;99.90;;;;;;5054270;28;20167;-54
2024/01/05 08:08:47;;;;;;;7.32;2.55;;;8.30;99.90;;;;;;5053252;28;20179;-54
2024/01/05 08:11:14;;;;;;;4.88;1.95;;;8.30;99.90;;;;;;5053935;28;20738;-53
2024/01/05 08:13:48;;;;;;;3.42;1.00;;;8.40;99.90;;;;;;5054335;28;20174;-54
2024/01/05 08:16:14;;;;;;;4.97;1.42;;;8.50;99.90;;;;;;5053111;28;20191;-53
2024/01/05 08:18:41;;;;;;;3.35;1.40;;;8.50;99.90;;;;;;5054030;28;20232;-54
2024/01/05 08:21:07;;;;;;;4.75;1.63;;;8.50;99.90;;;;;;5051448;28;20210;-52
2024/01/05 08:23:33;;;;;;;4.20;0.93;;;8.50;99.90;;;;;;5052071;28;20202;-48
2024/01/05 08:25:59;;;;;;;3.83;0.75;;;8.60;99.90;;;;;;5052609;28;20171;-48
2024/01/05 08:28:25;;;;;;;2.72;0.90;;;9.90;99.90;;;;;;5052552;28;20166;-46
2024/01/05 08:30:51;;;;;;;2.92;0.68;;;8.60;99.90;;;;;;5051808;28;20541;-48
2024/01/05 08:33:17;;;;;;;1.10;0.60;;;8.60;99.90;;;;;;5051909;28;20166;-47
2024/01/05 08:35:42;;;;;;;0.95;0.45;;;8.60;99.90;;;;;;5052050;28;20650;-48
2024/01/05 08:38:08;;;;;;;0.47;0.47;;;8.60;99.90;;;;;;5051996;28;20170;-47
2024/01/05 08:40:33;;;;;;;0.70;0.70;;;8.60;99.90;;;;;;5031138;28;20175;-45
2024/01/05 08:42:59;;;;;;;1.20;0.45;;;8.70;99.90;;;;;;5032219;28;20163;-50
2024/01/05 08:45:27;;;;;;;0.30;0.30;;;8.80;99.90;;;;;;5032424;28;20179;-48
2024/01/05 08:47:53;;;;;;;0.95;0.32;;;9.40;99.90;;;;;;5032314;28;20179;-49
2024/01/05 08:50:18;;;;;;;1.10;0.47;;;8.70;99.90;;;;;;5031729;28;20236;-47
2024/01/05 08:52:45;;;;;;;1.20;0.43;;;8.70;99.90;;;;;;5032708;28;20164;-47
2024/01/05 08:55:14;;;;;;;0.52;0.40;;;8.70;99.90;;;;;;5033201;28;20211;-46
2024/01/05 08:57:39;;;;;;;0.43;0.40;;;8.70;99.90;;;;;;5033330;28;20159;-50
2024/01/05 09:00:09;;;;;;;2.30;0.60;;;8.70;99.90;;;;;;5033269;28;20163;-52
2024/01/05 09:02:35;;;;;;;1.27;0.25;;;8.80;99.90;;;;;;5033515;28;20292;-46
2024/01/05 09:05:04;;;;;;;0.60;0.45;;;8.80;99.90;;;;;;5032973;28;20538;-46
2024/01/05 09:07:29;;;;;;;0.63;0.30;;;8.80;99.90;;;;;;5033334;28;20190;-48
2024/01/05 09:09:55;;;;;;;2.28;0.68;;;8.80;99.90;;;;;;5051899;28;20179;-51
2024/01/05 09:12:21;;;;;;;1.00;0.68;;;8.80;99.90;;;;;;5053163;28;20179;-49
2024/01/05 09:14:47;;;;;;;1.10;0.47;;;8.80;99.90;;;;;;5052853;28;20580;-48
2024/01/05 09:17:12;;;;;;;1.75;0.77;;;8.90;99.90;;;;;;5053004;28;20568;-52
2024/01/05 09:19:38;;;;;;;2.25;1.10;;;8.90;99.90;;;;;;5053059;28;20167;-52
2024/01/05 09:22:04;;;;;;;1.27;0.85;;;8.90;99.90;;;;;;5052788;28;20163;-50
2024/01/05 09:24:29;;;;;;;1.10;0.60;;;8.90;99.90;;;;;;5050916;28;20599;-47
2024/01/05 09:26:55;;;;;;;1.58;1.05;;;8.90;99.90;;;;;;5053347;28;20167;-50
2024/01/05 09:29:21;;;;;;;0.70;0.70;;;8.90;99.90;;;;;;5051265;28;20257;-52
2024/01/05 09:31:46;;;;;;;0.43;0.43;;;8.90;99.90;;;;;;5052435;28;20289;-51
2024/01/05 09:34:13;;;;;;;1.55;0.50;;;8.90;99.90;;;;;;5052456;28;20217;-47
2024/01/05 09:36:41;;;;;;;0.90;0.43;;;8.90;99.90;;;;;;5052608;28;20213;-47
2024/01/05 09:39:07;;;;;;;3.13;0.70;;;8.90;99.90;;;;;;5038824;28;20202;-50
2024/01/05 09:41:33;;;;;;;0.88;0.40;;;8.90;99.90;;;;;;5032679;28;20167;-51
2024/01/05 09:44:00;;;;;;;0.60;0.47;;;8.90;99.90;;;;;;5032928;28;20229;-48
2024/01/05 09:46:28;;;;;;;0.73;0.30;;;8.80;99.90;;;;;;5032772;28;20251;-50
2024/01/05 09:48:58;;;;;;;0.43;0.25;;;8.80;99.90;;;;;;5032258;28;20171;-48
2024/01/05 09:51:28;;;;;;;4.95;0.82;;;8.80;99.90;;;;;;5032184;28;20256;-49
2024/01/05 09:53:54;;;;;;;0.55;0.30;;;8.80;99.90;;;;;;5031375;28;20195;-48
2024/01/05 09:56:21;;;;;;;0.40;0.40;;;8.80;99.90;;;;;;5032057;28;20297;-49
2024/01/05 09:58:47;;;;;;;0.77;0.60;;;8.80;99.90;;;;;;5032039;28;20163;-47
2024/01/05 10:01:27;;;;;;;0.73;0.63;;;8.80;99.90;;;;;;5031931;28;20309;-49
2024/01/05 10:03:56;;;;;;;0.77;0.47;;;8.90;99.90;;;;;;5032287;28;20171;-51
2024/01/05 10:06:22;;;;;;;2.30;0.30;;;8.90;99.90;;;;;;5031485;28;20597;-49
2024/01/05 10:08:57;;;;;;;1.25;0.63;;;8.90;99.90;;;;;;5046029;28;20290;-49
2024/01/05 10:11:34;;;;;;;1.45;0.60;;;8.80;99.90;;;;;;5051225;28;20789;-49
2024/01/05 10:14:01;;;;;;;1.58;1.27;;;8.80;99.90;;;;;;5052115;28;20178;-48
2024/01/05 10:16:34;;;;;;;0.30;0.30;;;8.80;99.90;;;;;;5052439;28;20614;-51
2024/01/05 10:19:16;;;;;;;0.85;0.55;;;8.80;99.90;;;;;;5051759;28;20189;-51
2024/01/05 10:21:44;;;;;;;1.10;0.50;;;8.80;99.90;;;;;;5051669;28;20167;-48
2024/01/05 10:24:22;;;;;;;1.05;0.70;;;8.80;99.90;;;;;;5051596;28;20618;-49
2024/01/05 10:27:08;;;;;;;1.08;0.52;;;8.80;99.90;;;;;;5051573;28;20194;-51
2024/01/05 10:29:36;;;;;;;3.92;0.80;;;8.80;99.90;;;;;;5051568;28;20171;-52
2024/01/05 10:32:21;;;;;;;1.35;0.32;;;8.80;99.90;;;;;;5050846;28;20209;-48
2024/01/05 10:34:48;;;;;;;3.95;1.00;;;8.80;99.90;;;;;;5051284;28;20216;-48
2024/01/05 10:37:19;;;;;;;1.45;0.88;;;8.80;99.90;;;;;;5049678;28;20699;-48
2024/01/05 10:39:53;;;;;;;2.78;0.98;;;8.90;99.90;;;;;;5031289;28;20182;-48
2024/01/05 10:42:26;;;;;;;0.70;0.70;;;8.80;99.90;;;;;;5031344;28;20948;-48
2024/01/05 10:44:54;;;;;;;0.90;0.47;;;8.80;99.90;;;;;;5031380;28;20598;-48
2024/01/05 10:47:29;;;;;;;1.17;1.08;;;8.90;99.90;;;;;;5031346;28;20160;-48
2024/01/05 10:49:55;;;;;;;1.70;0.68;;;8.90;99.90;;;;;;5031984;28;20170;-48
2024/01/05 10:52:30;;;;;;;3.55;1.80;;;8.90;99.90;;;;;;5031317;28;20183;-48
2024/01/05 10:55:02;;;;;;;0.30;0.30;;;8.90;99.90;;;;;;5031701;28;20226;-48
2024/01/05 10:57:30;;;;;;;0.90;0.52;;;8.90;99.90;;;;;;5031520;28;20173;-48
2024/01/05 10:59:56;;;;;;;1.23;0.68;;;8.90;99.90;;;;;;5031593;28;20190;-48
2024/01/05 11:02:31;;;;;;;1.67;0.88;;;8.90;99.90;;;;;;5029854;28;20167;-47
2024/01/05 11:05:09;;;;;;;1.95;0.65;;;8.80;99.90;;;;;;5031438;28;20672;-45
2024/01/05 11:07:36;;;;;;;0.70;0.35;;;8.80;99.90;;;;;;5039845;28;20251;-47
2024/01/05 11:10:35;;;;;;;1.70;0.70;;;8.80;99.90;;;;;;5051148;28;20197;-47
2024/01/05 11:13:19;;;;;;;4.10;0.80;;;8.90;99.90;;;;;;5050777;28;20216;-48
2024/01/05 11:16:10;;;;;;;1.98;0.57;;;8.90;99.90;;;;;;5050647;28;20163;-49
2024/01/05 11:19:02;;;;;;;0.55;0.52;;;9.00;99.90;;;;;;5051018;28;20167;-49
2024/01/05 11:21:54;;;;;;;1.85;0.75;;;9.00;99.90;;;;;;5051322;28;20704;-49
2024/01/05 11:24:20;;;;;;;2.45;0.80;;;9.10;99.90;;;;;;5050764;28;20638;-49
2024/01/05 11:26:45;;;;;;;4.13;0.68;;;9.00;99.90;;;;;;5050951;28;20180;-49
2024/01/05 11:29:15;;;;;;;0.50;0.47;;;8.90;99.90;;;;;;5050814;28;20167;-50
2024/01/05 11:31:46;;;;;;;2.72;0.57;;;8.90;99.90;;;;;;5050791;28;20202;-50
2024/01/05 11:34:37;;;;;;;1.90;0.63;;;9.00;99.90;;;;;;5051040;28;20197;-49
2024/01/05 11:37:07;;;;;;;0.85;0.52;;;8.90;99.90;;;;;;5050275;28;20171;-49
2024/01/05 11:39:49;;;;;;;2.47;0.80;;;8.80;99.90;;;;;;5050391;28;20627;-49
2024/01/05 11:42:33;;;;;;;0.57;0.43;;;9.10;99.90;;;;;;5050389;28;20174;-48
2024/01/05 11:45:03;;;;;;;3.13;0.88;;;9.00;99.90;;;;;;5051480;28;20178;-49
2024/01/05 11:47:45;;;;;;;4.38;0.65;;;9.00;99.90;;;;;;5049699;28;20167;-49
2024/01/05 11:50:24;;;;;;;2.63;0.85;;;8.90;99.90;;;;;;5050081;28;20177;-52
2024/01/05 11:53:15;;;;;;;2.88;0.60;;;9.00;99.90;;;;;;5053346;28;20170;-49
2024/01/05 11:55:48;;;;;;;0.70;0.70;;;9.00;99.90;;;;;;5054167;28;20681;-51
2024/01/05 11:58:20;;;;;;;1.88;0.75;;;8.90;99.90;;;;;;5054278;28;20166;-50
2024/01/05 12:00:50;;;;;;;1.70;0.52;;;9.00;99.90;;;;;;5054283;28;20194;-53
2024/01/05 12:03:17;;;;;;;5.28;1.55;;;8.90;99.90;;;;;;5054374;28;20171;-51
2024/01/05 12:05:43;;;;;;;1.80;0.70;;;8.90;99.90;;;;;;5054487;28;20175;-50
2024/01/05 12:08:13;;;;;;;0.73;0.65;;;8.90;99.90;;;;;;5035107;28;20180;-49
2024/01/05 12:10:40;;;;;;;1.52;0.90;;;8.90;99.90;;;;;;5034136;28;20539;-49
2024/01/05 12:13:06;;;;;;;2.65;1.00;;;8.80;99.90;;;;;;5033815;28;20623;-50
2024/01/05 12:15:32;;;;;;;2.45;0.68;;;8.80;99.90;;;;;;5034134;28;20175;-50
2024/01/05 12:18:11;;;;;;;1.10;0.65;;;8.80;99.90;;;;;;5034033;28;20179;-49
2024/01/05 12:20:37;;;;;;;1.23;0.70;;;8.80;99.90;;;;;;5034066;28;20171;-52
2024/01/05 12:23:03;;;;;;;2.47;1.30;;;8.70;99.90;;;;;;5033814;28;20182;-49
2024/01/05 12:25:29;;;;;;;8.68;1.23;;;8.80;99.90;;;;;;5034441;28;20172;-48
2024/01/05 12:27:56;;;;;;;2.72;0.80;;;8.80;99.90;;;;;;5034376;28;20622;-50
2024/01/05 12:30:23;;;;;;;0.70;0.50;;;8.80;99.90;;;;;;5033724;28;20286;-52
2024/01/05 12:32:52;;;;;;;2.92;0.98;;;8.70;99.90;;;;;;5033823;28;20631;-49
2024/01/05 12:35:18;;;;;;;1.98;0.98;;;8.70;99.90;;;;;;5032514;28;20600;-51
2024/01/05 12:37:53;;;;;;;3.72;1.98;;;8.80;99.90;;;;;;5049082;28;20179;-50
2024/01/05 12:40:26;;;;;;;2.42;1.02;;;8.70;99.90;;;;;;5053546;28;20251;-48
2024/01/05 12:42:53;;;;;;;1.30;0.85;;;8.70;99.90;;;;;;5053700;28;20225;-50
2024/01/05 12:45:22;;;;;;;1.42;0.93;;;8.70;99.90;;;;;;5053463;28;20167;-50
2024/01/05 12:47:51;;;;;;;3.45;0.98;;;8.70;99.90;;;;;;5053756;28;20254;-47
2024/01/05 12:50:27;;;;;;;12.63;2.03;;;8.70;99.90;;;;;;5053310;28;20735;-51
2024/01/05 12:52:54;;;;;;;2.13;0.88;;;8.70;99.90;;;;;;5053517;28;20182;-52
2024/01/05 12:55:30;;;;;;;0.70;0.70;;;8.70;99.90;;;;;;5053226;28;20674;-50
2024/01/05 12:58:05;;;;;;;1.83;0.60;;;8.60;99.90;;;;;;5053695;28;20308;-50